createdAt,value
2024-05-09T00:00:50.826Z,94.03
2024-05-09T00:02:31.856Z,93.81
2024-05-09T00:04:12.461Z,94.08
2024-05-09T00:05:53.346Z,93.34
2024-05-09T00:07:34.668Z,94.02
2024-05-09T00:09:15.201Z,93.66
2024-05-09T00:10:55.603Z,93.90
2024-05-09T00:12:36.303Z,94.10
2024-05-09T00:14:16.684Z,94.01
2024-05-09T00:15:57.614Z,93.86
2024-05-09T00:17:38.416Z,93.86
2024-05-09T00:19:19.475Z,93.39
2024-05-09T00:21:00.423Z,93.01
2024-05-09T00:22:41.027Z,93.20
2024-05-09T00:24:21.363Z,92.71
2024-05-09T00:26:02.126Z,92.96
2024-05-09T00:27:43.173Z,93.18
2024-05-09T00:29:23.841Z,93.14
2024-05-09T00:31:04.744Z,92.62
2024-05-09T00:32:45.148Z,93.30
2024-05-09T00:34:26.506Z,92.88
2024-05-09T00:36:07.383Z,92.49
2024-05-09T00:37:47.593Z,92.78
2024-05-09T00:39:28.209Z,92.74
2024-05-09T00:41:08.635Z,92.66
2024-05-09T00:42:49.551Z,92.01
2024-05-09T00:44:30.324Z,92.83
2024-05-09T00:46:11.492Z,92.44
2024-05-09T00:47:52.200Z,92.50
2024-05-09T00:49:33.998Z,92.56
2024-05-09T00:51:14.651Z,92.66
2024-05-09T00:52:56.578Z,92.34
2024-05-09T00:54:36.904Z,92.38
2024-05-09T00:56:17.558Z,92.12
2024-05-09T00:57:58.216Z,91.92
2024-05-09T00:59:39.485Z,92.17
2024-05-09T01:01:23.729Z,91.70
2024-05-09T01:03:04.691Z,92.38
2024-05-09T01:04:45.460Z,93.04
2024-05-09T01:06:26.467Z,92.81
2024-05-09T01:08:08.257Z,92.63
2024-05-09T01:09:48.815Z,92.90
2024-05-09T01:11:40.558Z,92.20
2024-05-09T01:13:20.719Z,92.50
2024-05-09T01:15:01.011Z,92.92
2024-05-09T01:16:42.528Z,93.29
2024-05-09T01:18:23.638Z,93.78
2024-05-09T01:20:06.403Z,93.72
2024-05-09T01:21:50.628Z,93.59
2024-05-09T01:23:31.650Z,93.48
2024-05-09T01:25:12.804Z,93.66
2024-05-09T01:26:53.386Z,93.29
2024-05-09T01:28:33.993Z,93.30
2024-05-09T01:30:17.468Z,92.48
2024-05-09T01:32:04.745Z,93.33
2024-05-09T01:33:45.442Z,93.36
2024-05-09T01:35:26.056Z,93.24
2024-05-09T01:37:06.962Z,93.43
2024-05-09T01:38:47.565Z,93.41
2024-05-09T01:40:36.454Z,93.69
2024-05-09T01:42:19.822Z,94.27
2024-05-09T01:44:00.742Z,94.31
2024-05-09T01:45:41.546Z,94.16
2024-05-09T01:47:22.600Z,94.62
2024-05-09T01:49:04.535Z,94.35
2024-05-09T01:50:45.132Z,94.62
2024-05-09T01:52:25.694Z,94.79
2024-05-09T01:54:06.736Z,94.79
2024-05-09T01:55:47.600Z,95.33
2024-05-09T01:57:28.847Z,95.20
2024-05-09T01:59:10.611Z,95.40
2024-05-09T02:00:51.478Z,95.47
2024-05-09T02:02:32.361Z,95.45
2024-05-09T02:04:12.865Z,95.23
2024-05-09T02:05:54.024Z,95.54
2024-05-09T02:07:35.258Z,95.59
2024-05-09T02:09:15.894Z,95.48
2024-05-09T02:10:56.334Z,95.54
2024-05-09T02:12:37.082Z,95.76
2024-05-09T02:14:18.988Z,95.89
2024-05-09T02:15:59.718Z,95.94
2024-05-09T02:17:40.374Z,96.12
2024-05-09T02:19:21.302Z,95.65
2024-05-09T02:21:02.120Z,96.35
2024-05-09T02:22:42.923Z,96.22
2024-05-09T02:24:23.435Z,96.16
2024-05-09T02:26:03.675Z,96.35
2024-05-09T02:27:44.568Z,96.64
2024-05-09T02:29:25.248Z,96.56
2024-05-09T02:31:06.526Z,96.62
2024-05-09T02:32:47.125Z,95.99
2024-05-09T02:34:28.055Z,96.23
2024-05-09T02:36:09.653Z,96.46
2024-05-09T02:37:49.959Z,96.70
2024-05-09T02:39:30.780Z,96.93
2024-05-09T02:41:11.531Z,96.96
2024-05-09T02:42:52.138Z,96.84
2024-05-09T02:44:32.726Z,96.61
2024-05-09T02:46:13.719Z,96.90
2024-05-09T02:47:54.437Z,96.77
2024-05-09T02:49:35.255Z,97.26
2024-05-09T02:51:15.619Z,97.42
2024-05-09T02:52:56.404Z,97.61
2024-05-09T02:54:36.985Z,97.69
2024-05-09T02:56:17.736Z,97.75
2024-05-09T02:57:58.462Z,97.35
2024-05-09T02:59:38.911Z,97.80
2024-05-09T03:01:19.723Z,97.88
2024-05-09T03:03:00.603Z,97.82
2024-05-09T03:04:42.844Z,97.74
2024-05-09T03:06:23.523Z,97.56
2024-05-09T03:08:05.044Z,97.91
2024-05-09T03:09:47.136Z,98.37
2024-05-09T03:11:27.892Z,98.63
2024-05-09T03:13:11.354Z,98.20
2024-05-09T03:14:51.507Z,98.23
2024-05-09T03:16:37.865Z,97.94
2024-05-09T03:18:18.649Z,98.29
2024-05-09T03:19:59.706Z,98.35
2024-05-09T03:21:40.730Z,98.53
2024-05-09T03:23:21.803Z,97.71
2024-05-09T03:25:02.823Z,97.85
2024-05-09T03:26:43.146Z,98.23
2024-05-09T03:28:24.195Z,98.11
2024-05-09T03:30:07.366Z,98.04
2024-05-09T03:31:48.537Z,98.24
2024-05-09T03:33:29.449Z,98.04
2024-05-09T03:35:10.560Z,98.12
2024-05-09T03:36:51.325Z,98.33
2024-05-09T03:38:37.479Z,98.05
2024-05-09T03:40:23.463Z,98.11
2024-05-09T03:42:06.625Z,97.84
2024-05-09T03:43:47.237Z,97.75
2024-05-09T03:45:27.694Z,97.17
2024-05-09T03:47:08.489Z,97.46
2024-05-09T03:48:49.158Z,97.32
2024-05-09T03:50:33.796Z,97.11
2024-05-09T03:52:16.587Z,97.36
2024-05-09T03:53:57.866Z,97.16
2024-05-09T03:55:40.269Z,97.02
2024-05-09T03:57:21.235Z,96.74
2024-05-09T03:59:01.862Z,97.04
2024-05-09T04:00:42.807Z,96.77
2024-05-09T04:02:23.335Z,96.33
2024-05-09T04:04:04.301Z,96.32
2024-05-09T04:05:45.383Z,95.54
2024-05-09T04:07:26.290Z,96.15
2024-05-09T04:09:07.322Z,95.90
2024-05-09T04:10:47.956Z,96.08
2024-05-09T04:12:28.392Z,96.39
2024-05-09T04:14:09.053Z,96.34
2024-05-09T04:15:49.662Z,96.22
2024-05-09T04:17:30.443Z,96.49
2024-05-09T04:19:11.751Z,96.31
2024-05-09T04:20:52.187Z,96.00
2024-05-09T04:22:32.646Z,96.28
2024-05-09T04:24:13.202Z,96.37
2024-05-09T04:25:53.995Z,95.91
2024-05-09T04:27:34.656Z,96.18
2024-05-09T04:29:15.547Z,96.10
2024-05-09T04:30:56.231Z,96.16
2024-05-09T04:32:36.618Z,96.42
2024-05-09T04:34:17.876Z,96.65
2024-05-09T04:35:58.396Z,96.91
2024-05-09T04:37:39.189Z,97.35
2024-05-09T04:39:20.028Z,98.03
2024-05-09T04:41:00.756Z,98.33
2024-05-09T04:42:41.917Z,98.97
2024-05-09T04:44:22.576Z,99.69
2024-05-09T04:46:04.118Z,99.80
2024-05-09T04:47:44.636Z,100.00
2024-05-09T04:49:25.935Z,100.00
2024-05-09T04:51:07.356Z,100.00
2024-05-09T04:52:48.088Z,100.00
2024-05-09T04:54:35.795Z,100.00
2024-05-09T04:56:17.471Z,99.75
2024-05-09T04:57:58.238Z,99.25
2024-05-09T04:59:40.232Z,99.00
2024-05-09T05:01:20.822Z,98.92
2024-05-09T05:03:05.715Z,98.73
2024-05-09T05:04:46.833Z,98.70
2024-05-09T05:06:27.381Z,98.45
2024-05-09T05:08:12.887Z,97.44
2024-05-09T05:09:54.255Z,97.40
2024-05-09T05:11:34.734Z,96.47
2024-05-09T05:13:23.859Z,95.88
2024-05-09T05:15:05.591Z,95.47
2024-05-09T05:16:46.292Z,95.04
2024-05-09T05:18:28.134Z,95.02
2024-05-09T05:20:12.616Z,94.50
2024-05-09T05:21:56.093Z,93.99
2024-05-09T05:23:36.529Z,93.11
2024-05-09T05:25:17.885Z,92.97
2024-05-09T05:26:58.165Z,92.37
2024-05-09T05:28:38.803Z,92.22
2024-05-09T05:30:25.088Z,91.13
2024-05-09T05:32:09.555Z,90.65
2024-05-09T05:33:50.310Z,91.12
2024-05-09T05:35:31.538Z,90.99
2024-05-09T05:37:11.750Z,89.65
2024-05-09T05:38:52.373Z,88.53
2024-05-09T05:40:36.795Z,88.63
2024-05-09T05:42:18.938Z,90.22
2024-05-09T05:43:59.794Z,91.78
2024-05-09T05:45:40.064Z,92.13
2024-05-09T05:47:20.766Z,91.82
2024-05-09T05:49:01.591Z,91.88
2024-05-09T05:50:43.005Z,92.83
2024-05-09T05:52:23.808Z,91.50
2024-05-09T05:54:04.177Z,91.57
2024-05-09T05:55:44.631Z,91.56
2024-05-09T05:57:25.194Z,92.08
2024-05-09T05:59:05.599Z,92.34
2024-05-09T06:00:46.641Z,92.45
2024-05-09T06:02:27.519Z,92.91
2024-05-09T06:04:08.512Z,92.65
2024-05-09T06:05:49.083Z,91.97
2024-05-09T06:07:29.538Z,90.90
2024-05-09T06:09:10.366Z,89.85
2024-05-09T06:10:50.659Z,89.16
2024-05-09T06:12:31.435Z,89.11
2024-05-09T06:14:12.064Z,88.82
2024-05-09T06:15:52.563Z,86.24
2024-05-09T06:17:33.222Z,83.57
2024-05-09T06:19:14.157Z,81.23
2024-05-09T06:20:54.491Z,77.73
2024-05-09T06:22:35.341Z,77.72
2024-05-09T06:24:17.808Z,76.82
2024-05-09T06:25:58.445Z,75.50
2024-05-09T06:27:40.002Z,72.96
2024-05-09T06:29:20.168Z,70.20
2024-05-09T06:31:01.849Z,69.21
2024-05-09T06:32:45.722Z,69.66
2024-05-09T06:34:26.784Z,68.73
2024-05-09T06:36:08.243Z,69.05
2024-05-09T06:37:48.598Z,66.14
2024-05-09T06:39:29.103Z,64.90
2024-05-09T06:41:09.914Z,62.84
2024-05-09T06:42:50.539Z,61.22
2024-05-09T06:44:31.376Z,62.56
2024-05-09T06:46:12.469Z,59.31
2024-05-09T06:47:53.323Z,58.66
2024-05-09T06:49:34.406Z,57.78
2024-05-09T06:51:15.504Z,57.42
2024-05-09T06:52:56.117Z,58.51
2024-05-09T06:54:37.732Z,58.16
2024-05-09T06:56:18.296Z,57.51
2024-05-09T06:57:58.861Z,60.09
2024-05-09T06:59:39.606Z,59.41
2024-05-09T07:01:20.674Z,58.45
2024-05-09T07:03:05.480Z,57.88
2024-05-09T07:04:47.014Z,57.26
2024-05-09T07:06:27.887Z,58.01
2024-05-09T07:08:08.732Z,58.81
2024-05-09T07:09:49.714Z,58.73
2024-05-09T07:11:31.704Z,57.45
2024-05-09T07:13:13.569Z,57.60
2024-05-09T07:14:54.613Z,56.45
2024-05-09T07:16:35.212Z,56.02
2024-05-09T07:18:17.732Z,55.92
2024-05-09T07:20:00.158Z,52.40
2024-05-09T07:21:40.992Z,53.86
2024-05-09T07:23:21.568Z,54.51
2024-05-09T07:25:02.841Z,54.08
2024-05-09T07:26:43.584Z,52.50
2024-05-09T07:28:24.878Z,53.68
2024-05-09T07:30:07.341Z,51.17
2024-05-09T07:31:48.045Z,52.71
2024-05-09T07:33:29.374Z,54.17
2024-05-09T07:35:10.172Z,50.61
2024-05-09T07:36:52.536Z,51.16
2024-05-09T07:38:32.914Z,51.36
2024-05-09T07:40:24.086Z,49.71
2024-05-09T07:42:09.482Z,48.88
2024-05-09T07:43:50.140Z,48.48
2024-05-09T07:45:47.787Z,48.50
2024-05-09T07:48:57.362Z,48.60
2024-05-09T07:53:35.964Z,51.41
2024-05-09T07:55:01.308Z,51.24
2024-05-09T07:56:42.162Z,49.70
2024-05-09T07:58:27.493Z,50.35
2024-05-09T08:00:11.742Z,49.04
2024-05-09T08:01:54.952Z,49.83
2024-05-09T08:03:35.550Z,50.52
2024-05-09T08:05:16.638Z,51.28
2024-05-09T08:06:57.509Z,50.99
2024-05-09T08:08:38.083Z,50.81
2024-05-09T08:10:22.257Z,51.60
2024-05-09T08:12:09.508Z,51.22
2024-05-09T08:13:51.005Z,50.54
2024-05-09T08:15:31.494Z,49.53
2024-05-09T08:17:14.637Z,49.44
2024-05-09T08:18:55.387Z,51.69
2024-05-09T08:20:39.946Z,50.91
2024-05-09T08:22:20.427Z,52.77
2024-05-09T08:24:01.023Z,52.42
2024-05-09T08:25:41.437Z,53.66
2024-05-09T08:27:21.913Z,53.19
2024-05-09T08:29:02.965Z,50.09
2024-05-09T08:30:44.190Z,46.65
2024-05-09T08:32:27.316Z,46.09
2024-05-09T08:34:10.043Z,45.17
2024-05-09T08:35:50.867Z,47.18
2024-05-09T08:37:36.672Z,46.67
2024-05-09T08:39:19.315Z,46.79
2024-05-09T08:41:03.541Z,46.08
2024-05-09T08:42:52.759Z,46.11
2024-05-09T08:44:37.055Z,48.04
2024-05-09T08:46:19.042Z,48.44
2024-05-09T08:48:01.514Z,47.86
2024-05-09T08:49:42.423Z,48.62
2024-05-09T08:51:23.881Z,49.92
2024-05-09T08:53:04.227Z,49.73
2024-05-09T08:54:45.126Z,49.25
2024-05-09T08:56:28.528Z,49.42
2024-05-09T08:58:10.467Z,48.34
2024-05-09T08:59:52.710Z,46.39
2024-05-09T09:01:35.776Z,46.26
2024-05-09T09:03:24.910Z,45.32
2024-05-09T09:05:16.846Z,44.74
2024-05-09T09:06:59.777Z,45.78
2024-05-09T09:08:41.429Z,45.71
2024-05-09T09:10:29.745Z,44.81
2024-05-09T09:12:13.197Z,45.68
2024-05-09T09:13:54.057Z,45.04
2024-05-09T09:15:35.029Z,41.27
2024-05-09T09:17:16.478Z,39.48
2024-05-09T09:18:57.748Z,38.95
2024-05-09T09:20:38.842Z,39.57
2024-05-09T09:22:19.907Z,39.13
2024-05-09T09:24:00.585Z,40.72
2024-05-09T09:25:41.941Z,38.45
2024-05-09T09:27:22.310Z,37.77
2024-05-09T09:29:02.860Z,36.87
2024-05-09T09:30:44.475Z,38.40
2024-05-09T09:32:29.172Z,38.51
2024-05-09T09:34:10.064Z,38.82
2024-05-09T09:35:51.232Z,39.28
2024-05-09T09:37:32.414Z,39.04
2024-05-09T09:39:17.987Z,39.69
2024-05-09T09:41:01.832Z,39.33
2024-05-09T09:42:43.652Z,40.02
2024-05-09T09:44:25.283Z,38.86
2024-05-09T09:46:09.545Z,39.12
2024-05-09T09:47:57.155Z,39.56
2024-05-09T09:49:39.604Z,39.21
2024-05-09T09:51:22.040Z,39.07
2024-05-09T09:53:04.891Z,39.74
2024-05-09T09:54:45.737Z,39.57
2024-05-09T09:56:30.352Z,38.48
2024-05-09T09:58:13.489Z,38.97
2024-05-09T09:59:57.529Z,39.84
2024-05-09T10:01:37.956Z,39.43
2024-05-09T10:03:18.669Z,40.59
2024-05-09T10:05:00.395Z,40.88
2024-05-09T10:06:44.397Z,39.41
2024-05-09T10:08:25.596Z,39.55
2024-05-09T10:10:07.080Z,39.65
2024-05-09T10:11:51.962Z,39.83
2024-05-09T10:13:35.527Z,39.11
2024-05-09T10:15:20.102Z,38.38
2024-05-09T10:17:05.360Z,39.01
2024-05-09T10:18:46.312Z,39.42
2024-05-09T10:20:30.892Z,39.87
2024-05-09T10:22:14.155Z,39.04
2024-05-09T10:23:59.928Z,37.50
2024-05-09T10:25:40.519Z,39.12
2024-05-09T10:27:28.751Z,39.88
2024-05-09T10:29:13.935Z,39.43
2024-05-09T10:31:02.449Z,39.37
2024-05-09T10:32:44.952Z,38.85
2024-05-09T10:34:33.885Z,39.26
2024-05-09T10:36:18.570Z,39.24
2024-05-09T10:38:06.175Z,40.07
2024-05-09T10:39:46.747Z,40.60
2024-05-09T10:41:27.737Z,38.96
2024-05-09T10:43:09.506Z,38.57
2024-05-09T10:44:49.768Z,39.16
2024-05-09T10:46:30.523Z,39.26
2024-05-09T10:48:11.808Z,38.26
2024-05-09T10:49:52.687Z,37.12
2024-05-09T10:51:33.898Z,36.86
2024-05-09T10:53:14.794Z,37.24
2024-05-09T10:54:55.511Z,37.83
2024-05-09T10:56:36.418Z,37.80
2024-05-09T10:58:18.104Z,37.71
2024-05-09T10:59:59.778Z,38.25
2024-05-09T11:01:40.727Z,38.06
2024-05-09T11:03:23.215Z,37.06
2024-05-09T11:05:05.489Z,36.98
2024-05-09T11:06:47.237Z,36.74
2024-05-09T11:08:28.765Z,36.34
2024-05-09T11:10:12.619Z,35.83
2024-05-09T11:11:55.290Z,37.01
2024-05-09T11:13:37.638Z,38.85
2024-05-09T11:15:18.389Z,38.84
2024-05-09T11:17:07.078Z,39.13
2024-05-09T11:18:55.919Z,39.97
2024-05-09T11:20:37.999Z,38.89
2024-05-09T11:22:18.889Z,39.14
2024-05-09T11:23:59.467Z,39.77
2024-05-09T11:25:40.574Z,40.00
2024-05-09T11:27:21.010Z,41.06
2024-05-09T11:29:01.956Z,40.66
2024-05-09T11:30:42.786Z,41.63
2024-05-09T11:32:30.299Z,41.48
2024-05-09T11:34:10.844Z,39.12
2024-05-09T11:35:51.295Z,38.83
2024-05-09T11:37:36.039Z,40.11
2024-05-09T11:39:18.110Z,40.19
2024-05-09T11:40:58.643Z,38.55
2024-05-09T11:42:39.595Z,37.60
2024-05-09T11:44:20.117Z,38.56
2024-05-09T11:46:03.028Z,36.63
2024-05-09T11:47:43.698Z,35.44
2024-05-09T11:49:26.776Z,35.24
2024-05-09T11:51:07.702Z,37.03
2024-05-09T11:52:48.431Z,37.14
2024-05-09T11:54:28.739Z,36.40
2024-05-09T11:56:12.016Z,36.40
2024-05-09T11:57:53.037Z,36.99
2024-05-09T11:59:33.835Z,37.50
2024-05-09T12:01:14.429Z,37.76
2024-05-09T12:02:58.872Z,36.43
2024-05-09T12:04:39.512Z,36.33
2024-05-09T12:06:20.842Z,36.98
2024-05-09T12:08:00.982Z,38.33
2024-05-09T12:09:41.721Z,35.68
2024-05-09T12:11:22.419Z,35.08
2024-05-09T12:13:05.225Z,35.62
2024-05-09T12:14:47.156Z,38.83
2024-05-09T12:16:27.879Z,38.20
2024-05-09T12:18:08.740Z,38.06
2024-05-09T12:19:49.478Z,36.43
2024-05-09T12:21:30.223Z,35.91
2024-05-09T12:23:10.921Z,36.73
2024-05-09T12:24:51.834Z,36.25
2024-05-09T12:26:33.075Z,36.47
2024-05-09T12:28:14.613Z,35.80
2024-05-09T12:29:55.114Z,36.12
2024-05-09T12:31:35.823Z,36.14
2024-05-09T12:33:16.419Z,35.99
2024-05-09T12:34:57.259Z,36.02
2024-05-09T12:36:37.926Z,37.34
2024-05-09T12:38:18.678Z,36.85
2024-05-09T12:39:59.266Z,36.70
2024-05-09T12:41:39.695Z,36.76
2024-05-09T12:43:20.122Z,37.09
2024-05-09T12:45:00.473Z,36.71
2024-05-09T12:46:41.135Z,36.70
2024-05-09T12:48:21.992Z,36.24
2024-05-09T12:50:04.908Z,36.39
2024-05-09T12:51:46.027Z,37.35
2024-05-09T12:53:27.023Z,36.03
2024-05-09T12:55:07.946Z,37.09
2024-05-09T12:56:48.622Z,38.22
2024-05-09T12:58:29.286Z,38.74
2024-05-09T13:00:20.214Z,39.78
2024-05-09T13:02:04.873Z,39.77
2024-05-09T13:03:45.741Z,39.93
2024-05-09T13:05:26.538Z,39.06
2024-05-09T13:07:08.109Z,37.98
2024-05-09T13:08:48.794Z,38.57
2024-05-09T13:10:32.723Z,38.78
2024-05-09T13:12:14.445Z,38.48
2024-05-09T13:13:55.228Z,37.94
2024-05-09T13:15:37.262Z,37.01
2024-05-09T13:17:18.010Z,36.99
2024-05-09T13:18:58.775Z,37.43
2024-05-09T13:20:39.328Z,37.91
2024-05-09T13:22:19.963Z,37.67
2024-05-09T13:24:00.615Z,38.15
2024-05-09T13:25:41.719Z,37.50
2024-05-09T13:27:22.998Z,37.02
2024-05-09T13:29:03.803Z,38.01
2024-05-09T13:30:44.503Z,38.45
2024-05-09T13:32:25.342Z,37.43
2024-05-09T13:34:06.039Z,37.12
2024-05-09T13:35:49.765Z,36.05
2024-05-09T13:37:33.063Z,37.40
2024-05-09T13:39:13.518Z,37.03
2024-05-09T13:40:54.382Z,35.91
2024-05-09T13:42:34.723Z,36.57
2024-05-09T13:44:15.492Z,36.08
2024-05-09T13:45:57.446Z,35.78
2024-05-09T13:47:38.236Z,35.53
2024-05-09T13:49:18.889Z,35.66
2024-05-09T13:50:59.728Z,34.98
2024-05-09T13:52:40.404Z,35.59
2024-05-09T13:54:22.622Z,35.05
2024-05-09T13:56:03.891Z,35.49
2024-05-09T13:57:44.838Z,35.60
2024-05-09T13:59:25.077Z,35.13
2024-05-09T14:01:05.831Z,34.14
2024-05-09T14:02:46.983Z,35.30
2024-05-09T14:04:27.644Z,35.93
2024-05-09T14:06:11.278Z,37.08
2024-05-09T14:07:53.607Z,36.86
2024-05-09T14:09:34.078Z,36.49
2024-05-09T14:11:14.961Z,36.03
2024-05-09T14:12:55.955Z,36.90
2024-05-09T14:14:35.985Z,37.00
2024-05-09T14:16:17.079Z,37.01
2024-05-09T14:17:57.713Z,38.09
2024-05-09T14:19:38.064Z,36.08
2024-05-09T14:21:18.436Z,36.02
2024-05-09T14:23:00.557Z,36.56
2024-05-09T14:24:40.987Z,34.81
2024-05-09T14:26:21.763Z,35.31
2024-05-09T14:28:02.307Z,33.57
2024-05-09T14:29:42.884Z,34.01
2024-05-09T14:31:23.958Z,33.78
2024-05-09T14:33:06.496Z,35.29
2024-05-09T14:34:48.412Z,35.13
2024-05-09T14:36:29.101Z,35.17
2024-05-09T14:38:10.163Z,35.76
2024-05-09T14:39:51.023Z,37.01
2024-05-09T14:41:32.247Z,36.34
2024-05-09T14:43:15.126Z,36.59
2024-05-09T14:44:56.491Z,37.29
2024-05-09T14:46:36.899Z,37.69
2024-05-09T14:48:19.867Z,37.31
2024-05-09T14:50:01.205Z,36.85
2024-05-09T14:51:47.064Z,36.04
2024-05-09T14:53:28.494Z,36.27
2024-05-09T14:55:12.191Z,35.56
2024-05-09T14:56:54.769Z,36.80
2024-05-09T14:58:35.634Z,37.55
2024-05-09T15:00:24.820Z,36.71
2024-05-09T15:02:09.277Z,36.26
2024-05-09T15:03:50.014Z,35.71
2024-05-09T15:05:30.867Z,37.26
2024-05-09T15:07:11.639Z,36.52
2024-05-09T15:08:56.820Z,38.47
2024-05-09T15:10:37.855Z,38.97
2024-05-09T15:12:18.750Z,38.98
2024-05-09T15:13:59.389Z,37.55
2024-05-09T15:15:40.483Z,38.15
2024-05-09T15:17:20.862Z,36.57
2024-05-09T15:19:01.701Z,36.86
2024-05-09T15:20:44.798Z,36.66
2024-05-09T15:22:25.655Z,36.68
2024-05-09T15:24:06.585Z,36.66
2024-05-09T15:25:47.415Z,38.13
2024-05-09T15:27:28.194Z,38.40
2024-05-09T15:29:08.549Z,38.37
2024-05-09T15:30:49.280Z,37.50
2024-05-09T15:32:30.186Z,37.02
2024-05-09T15:34:11.059Z,37.68
2024-05-09T15:35:51.656Z,37.14
2024-05-09T15:37:32.760Z,36.99
2024-05-09T15:39:13.424Z,36.78
2024-05-09T15:40:54.317Z,37.10
2024-05-09T15:42:34.771Z,36.27
2024-05-09T15:44:15.186Z,36.20
2024-05-09T15:45:55.767Z,36.79
2024-05-09T15:47:37.950Z,36.09
2024-05-09T15:49:19.192Z,36.49
2024-05-09T15:50:59.996Z,35.71
2024-05-09T15:52:40.534Z,36.65
2024-05-09T15:54:22.151Z,35.65
2024-05-09T15:56:03.556Z,35.85
2024-05-09T15:57:46.117Z,36.36
2024-05-09T15:59:27.044Z,36.70
2024-05-09T16:01:07.621Z,37.18
2024-05-09T16:02:48.338Z,37.00
2024-05-09T16:04:29.269Z,35.99
2024-05-09T16:06:10.669Z,35.32
2024-05-09T16:07:51.265Z,36.04
2024-05-09T16:09:32.163Z,35.54
2024-05-09T16:11:14.932Z,36.51
2024-05-09T16:12:55.687Z,36.01
2024-05-09T16:14:36.307Z,36.39
2024-05-09T16:16:16.894Z,37.19
2024-05-09T16:17:57.581Z,37.21
2024-05-09T16:19:38.501Z,37.59
2024-05-09T16:21:19.527Z,37.91
2024-05-09T16:22:59.959Z,38.78
2024-05-09T16:24:40.633Z,38.96
2024-05-09T16:26:20.831Z,39.09
2024-05-09T16:28:01.923Z,39.63
2024-05-09T16:29:43.971Z,39.30
2024-05-09T16:31:24.984Z,39.00
2024-05-09T16:33:06.429Z,39.07
2024-05-09T16:34:47.128Z,39.94
2024-05-09T16:36:27.928Z,39.22
2024-05-09T16:38:08.724Z,39.38
2024-05-09T16:39:49.522Z,39.17
2024-05-09T16:41:30.271Z,39.27
2024-05-09T16:43:13.978Z,39.75
2024-05-09T16:44:54.550Z,39.38
2024-05-09T16:46:35.114Z,40.24
2024-05-09T16:48:16.095Z,40.23
2024-05-09T16:49:56.834Z,40.26
2024-05-09T16:51:37.153Z,40.12
2024-05-09T16:53:19.122Z,40.43
2024-05-09T16:54:59.661Z,40.71
2024-05-09T16:56:40.353Z,40.22
2024-05-09T16:58:20.878Z,40.81
2024-05-09T17:00:02.098Z,40.97
2024-05-09T17:01:42.589Z,40.88
2024-05-09T17:03:23.760Z,40.95
2024-05-09T17:05:05.040Z,41.37
2024-05-09T17:06:46.072Z,41.51
2024-05-09T17:08:26.830Z,41.69
2024-05-09T17:10:12.494Z,41.28
2024-05-09T17:11:59.873Z,41.71
2024-05-09T17:13:41.010Z,41.61
2024-05-09T17:15:21.826Z,42.09
2024-05-09T17:17:02.709Z,41.77
2024-05-09T17:18:43.552Z,42.37
2024-05-09T17:20:31.851Z,42.32
2024-05-09T17:22:16.056Z,42.24
2024-05-09T17:23:57.094Z,43.26
2024-05-09T17:25:37.491Z,43.07
2024-05-09T17:27:17.879Z,42.54
2024-05-09T17:28:59.498Z,44.04
2024-05-09T17:30:41.950Z,43.43
2024-05-09T17:32:22.987Z,43.54
2024-05-09T17:34:03.044Z,43.88
2024-05-09T17:35:45.889Z,44.20
2024-05-09T17:37:26.902Z,44.24
2024-05-09T17:39:07.777Z,44.53
2024-05-09T17:40:47.891Z,44.48
2024-05-09T17:42:28.919Z,44.78
2024-05-09T17:44:09.504Z,44.52
2024-05-09T17:45:49.826Z,45.03
2024-05-09T17:47:30.742Z,45.30
2024-05-09T17:49:11.176Z,45.54
2024-05-09T17:50:52.360Z,45.39
2024-05-09T17:52:32.917Z,45.30
2024-05-09T17:54:13.904Z,45.56
2024-05-09T17:55:56.466Z,46.36
2024-05-09T17:57:37.493Z,46.69
2024-05-09T17:59:18.068Z,46.97
2024-05-09T18:00:59.031Z,46.82
2024-05-09T18:02:39.528Z,47.66
2024-05-09T18:04:20.728Z,47.77
2024-05-09T18:06:01.745Z,47.74
2024-05-09T18:07:42.574Z,48.28
2024-05-09T18:09:23.142Z,47.82
2024-05-09T18:11:03.487Z,47.91
2024-05-09T18:12:44.595Z,48.51
2024-05-09T18:14:25.009Z,48.84
2024-05-09T18:16:06.537Z,49.61
2024-05-09T18:17:47.005Z,48.68
2024-05-09T18:19:27.999Z,48.70
2024-05-09T18:21:08.877Z,49.31
2024-05-09T18:22:49.626Z,48.50
2024-05-09T18:24:30.164Z,49.55
2024-05-09T18:26:10.909Z,49.83
2024-05-09T18:27:51.701Z,50.20
2024-05-09T18:29:32.636Z,50.12
2024-05-09T18:31:15.186Z,50.50
2024-05-09T18:32:55.302Z,53.13
2024-05-09T18:34:36.072Z,50.46
2024-05-09T18:36:16.797Z,51.79
2024-05-09T18:37:57.550Z,50.48
2024-05-09T18:39:39.297Z,51.06
2024-05-09T18:41:21.046Z,51.73
2024-05-09T18:43:01.677Z,52.96
2024-05-09T18:44:42.270Z,53.53
2024-05-09T18:46:23.328Z,53.21
2024-05-09T18:48:05.049Z,52.36
2024-05-09T18:49:46.556Z,51.99
2024-05-09T18:51:26.900Z,52.63
2024-05-09T18:53:09.915Z,52.49
2024-05-09T18:54:51.912Z,52.82
2024-05-09T18:56:32.299Z,53.21
2024-05-09T18:58:13.394Z,53.68
2024-05-09T18:59:54.028Z,54.16
2024-05-09T19:01:36.387Z,53.77
2024-05-09T19:03:17.159Z,55.21
2024-05-09T19:04:57.996Z,55.43
2024-05-09T19:06:39.108Z,56.77
2024-05-09T19:08:19.769Z,56.39
2024-05-09T19:10:00.800Z,55.69
2024-05-09T19:11:41.808Z,56.26
2024-05-09T19:13:22.723Z,55.90
2024-05-09T19:15:03.877Z,57.51
2024-05-09T19:16:44.823Z,56.29
2024-05-09T19:18:25.503Z,56.41
2024-05-09T19:20:09.152Z,56.87
2024-05-09T19:21:52.011Z,55.90
2024-05-09T19:23:37.805Z,55.47
2024-05-09T19:25:19.319Z,56.95
2024-05-09T19:27:02.069Z,55.86
2024-05-09T19:28:42.556Z,56.34
2024-05-09T19:30:30.472Z,56.63
2024-05-09T19:32:19.100Z,58.67
2024-05-09T19:34:00.117Z,58.26
2024-05-09T19:35:40.872Z,58.46
2024-05-09T19:37:21.228Z,59.36
2024-05-09T19:39:01.760Z,59.68
2024-05-09T19:40:42.376Z,59.39
2024-05-09T19:42:22.837Z,60.55
2024-05-09T19:44:03.913Z,60.73
2024-05-09T19:45:45.238Z,61.55
2024-05-09T19:47:26.486Z,61.89
2024-05-09T19:49:07.448Z,62.05
2024-05-09T19:50:50.662Z,62.93
2024-05-09T19:52:32.887Z,63.01
2024-05-09T19:54:13.456Z,63.54
2024-05-09T19:55:53.950Z,63.40
2024-05-09T19:57:34.752Z,63.59
2024-05-09T19:59:15.472Z,64.03
2024-05-09T20:00:56.314Z,64.08
2024-05-09T20:02:37.398Z,64.46
2024-05-09T20:04:18.375Z,64.15
2024-05-09T20:05:58.829Z,65.07
2024-05-09T20:07:39.404Z,64.90
2024-05-09T20:09:20.113Z,65.11
2024-05-09T20:11:00.676Z,65.70
2024-05-09T20:12:41.597Z,66.54
2024-05-09T20:14:22.464Z,66.34
2024-05-09T20:16:03.049Z,66.29
2024-05-09T20:17:44.111Z,66.44
2024-05-09T20:19:24.810Z,66.35
2024-05-09T20:21:06.754Z,67.38
2024-05-09T20:22:47.287Z,67.39
2024-05-09T20:24:29.074Z,67.28
2024-05-09T20:26:09.641Z,67.88
2024-05-09T20:27:50.426Z,68.07
2024-05-09T20:29:30.970Z,68.54
2024-05-09T20:31:20.376Z,68.84
2024-05-09T20:33:07.042Z,68.51
2024-05-09T20:34:50.644Z,68.96
2024-05-09T20:36:31.227Z,69.41
2024-05-09T20:38:11.791Z,69.56
2024-05-09T20:39:52.484Z,69.62
2024-05-09T20:41:35.795Z,69.90
2024-05-09T20:43:18.025Z,70.01
2024-05-09T20:44:58.517Z,70.08
2024-05-09T20:46:39.024Z,70.00
2024-05-09T20:48:19.280Z,69.94
2024-05-09T20:50:00.433Z,69.69
2024-05-09T20:51:41.267Z,70.14
2024-05-09T20:53:22.086Z,70.45
2024-05-09T20:55:03.060Z,70.84
2024-05-09T20:56:43.652Z,71.57
2024-05-09T20:58:23.994Z,71.26
2024-05-09T21:00:12.065Z,71.78
2024-05-09T21:01:56.057Z,72.11
2024-05-09T21:03:38.109Z,72.07
2024-05-09T21:05:19.333Z,71.97
2024-05-09T21:06:59.859Z,72.67
2024-05-09T21:08:41.748Z,72.80
2024-05-09T21:10:22.938Z,72.81
2024-05-09T21:12:03.991Z,73.15
2024-05-09T21:13:44.234Z,73.19
2024-05-09T21:15:24.316Z,73.96
2024-05-09T21:17:05.005Z,73.77
2024-05-09T21:18:45.756Z,73.89
2024-05-09T21:20:31.272Z,73.54
2024-05-09T21:22:13.814Z,73.39
2024-05-09T21:23:54.206Z,73.94
2024-05-09T21:25:34.329Z,73.81
2024-05-09T21:27:15.165Z,73.78
2024-05-09T21:28:55.892Z,74.42
2024-05-09T21:30:41.735Z,73.79
2024-05-09T21:32:24.042Z,74.08
2024-05-09T21:34:04.776Z,73.87
2024-05-09T21:35:45.465Z,74.19
2024-05-09T21:37:26.398Z,75.00
2024-05-09T21:39:09.394Z,74.49
2024-05-09T21:40:50.132Z,74.52
2024-05-09T21:42:30.539Z,75.00
2024-05-09T21:44:11.483Z,74.29
2024-05-09T21:45:52.031Z,74.87
2024-05-09T21:47:34.762Z,75.71
2024-05-09T21:49:17.424Z,76.20
2024-05-09T21:50:57.958Z,76.58
2024-05-09T21:52:38.724Z,76.35